createdAt,value
2018-05-18T00:01:16.972Z,99.90
2018-05-18T00:03:44.541Z,99.90
2018-05-18T00:06:12.086Z,99.90
2018-05-18T00:08:39.661Z,99.90
2018-05-18T00:11:07.206Z,99.90
2018-05-18T00:13:34.796Z,99.90
2018-05-18T00:16:02.342Z,99.90
2018-05-18T00:18:29.901Z,99.90
2018-05-18T00:20:57.496Z,99.90
2018-05-18T00:23:25.815Z,99.90
2018-05-18T00:25:53.381Z,99.90
2018-05-18T00:28:20.960Z,99.90
2018-05-18T00:30:49.515Z,99.90
2018-05-18T00:33:17.091Z,99.90
2018-05-18T00:35:44.683Z,99.90
2018-05-18T00:38:12.237Z,99.90
2018-05-18T00:40:39.815Z,99.90
2018-05-18T00:43:07.417Z,99.90
2018-05-18T00:45:35.006Z,99.90
2018-05-18T00:48:02.557Z,99.90
2018-05-18T00:50:30.118Z,99.90
2018-05-18T00:52:57.681Z,99.90
2018-05-18T00:55:37.033Z,99.90
2018-05-18T00:58:04.575Z,99.90
2018-05-18T01:00:32.142Z,99.90
2018-05-18T01:02:59.691Z,99.90
2018-05-18T01:05:27.256Z,99.90
2018-05-18T01:07:54.803Z,99.90
2018-05-18T01:10:22.358Z,99.90
2018-05-18T01:12:49.901Z,99.90
2018-05-18T01:15:17.492Z,99.90
2018-05-18T01:17:45.059Z,99.90
2018-05-18T01:20:12.650Z,99.90
2018-05-18T01:22:40.224Z,99.90
2018-05-18T01:25:07.794Z,99.90
2018-05-18T01:27:36.113Z,99.90
2018-05-18T01:30:03.682Z,99.90
2018-05-18T01:32:31.240Z,99.90
2018-05-18T01:34:58.823Z,99.90
2018-05-18T01:37:26.375Z,99.90
2018-05-18T01:39:53.977Z,99.90
2018-05-18T01:42:21.536Z,99.90
2018-05-18T01:44:49.836Z,99.90
2018-05-18T01:47:17.403Z,99.90
2018-05-18T01:49:44.955Z,99.90
2018-05-18T01:52:12.533Z,99.90
2018-05-18T01:54:40.082Z,99.90
2018-05-18T01:57:07.657Z,99.90
2018-05-18T01:59:35.210Z,99.90
2018-05-18T02:02:02.783Z,99.90
2018-05-18T02:04:30.341Z,99.90
2018-05-18T02:06:57.903Z,99.90
2018-05-18T02:09:25.443Z,99.90
2018-05-18T02:11:53.026Z,99.90
2018-05-18T02:14:20.584Z,99.90
2018-05-18T02:16:48.147Z,99.90
2018-05-18T02:19:15.703Z,99.90
2018-05-18T02:21:43.301Z,99.90
2018-05-18T02:24:11.994Z,99.90
2018-05-18T02:26:39.562Z,99.90
2018-05-18T02:29:07.126Z,99.90
2018-05-18T02:31:34.716Z,99.90
2018-05-18T02:34:02.316Z,99.90
2018-05-18T02:36:29.878Z,99.90
2018-05-18T02:38:57.435Z,99.90
2018-05-18T02:41:24.994Z,99.90
2018-05-18T02:43:52.548Z,99.90
2018-05-18T02:46:20.151Z,99.90
2018-05-18T02:48:47.718Z,99.90
2018-05-18T02:51:15.323Z,99.90
2018-05-18T02:53:42.874Z,99.90
2018-05-18T02:56:10.444Z,99.90
2018-05-18T02:58:38.005Z,99.90
2018-05-18T03:01:05.569Z,99.90
2018-05-18T03:03:33.124Z,99.90
2018-05-18T03:06:01.678Z,99.90
2018-05-18T03:08:29.285Z,99.90
2018-05-18T03:10:56.844Z,99.90
2018-05-18T03:13:25.421Z,99.90
2018-05-18T03:15:52.967Z,99.90
2018-05-18T03:18:20.544Z,99.90
2018-05-18T03:20:48.076Z,99.90
2018-05-18T03:23:15.656Z,99.90
2018-05-18T03:25:43.202Z,99.90
2018-05-18T03:28:10.764Z,99.90
2018-05-18T03:30:39.332Z,99.90
2018-05-18T03:33:07.432Z,99.90
2018-05-18T03:35:34.960Z,99.90
2018-05-18T03:38:02.539Z,99.90
2018-05-18T03:40:30.080Z,99.90
2018-05-18T03:42:57.661Z,99.90
2018-05-18T03:45:25.217Z,99.90
2018-05-18T03:47:52.785Z,99.90
2018-05-18T03:50:20.359Z,99.90
2018-05-18T03:52:47.915Z,99.90
2018-05-18T03:55:15.447Z,99.90
2018-05-18T03:57:43.007Z,99.90
2018-05-18T04:00:10.548Z,99.90
2018-05-18T04:02:51.093Z,99.90
2018-05-18T04:05:30.602Z,99.90
2018-05-18T04:08:09.956Z,99.90
2018-05-18T04:10:37.503Z,99.90
2018-05-18T04:13:05.063Z,99.90
2018-05-18T04:15:32.624Z,99.90
2018-05-18T04:18:00.214Z,99.90
2018-05-18T04:20:27.762Z,99.90
2018-05-18T04:22:55.290Z,99.90
2018-05-18T04:25:22.854Z,99.90
2018-05-18T04:27:50.379Z,99.90
2018-05-18T04:30:18.841Z,99.90
2018-05-18T04:32:46.359Z,99.90
2018-05-18T04:35:13.915Z,99.90
2018-05-18T04:37:41.464Z,99.90
2018-05-18T04:40:09.037Z,99.90
2018-05-18T04:42:36.588Z,99.90
2018-05-18T04:45:04.172Z,99.90
2018-05-18T04:47:31.700Z,99.90
2018-05-18T04:49:59.304Z,99.90
2018-05-18T04:52:27.622Z,99.90
2018-05-18T04:54:55.215Z,99.90
2018-05-18T04:57:22.766Z,99.90
2018-05-18T04:59:50.335Z,99.90
2018-05-18T05:02:17.894Z,99.90
2018-05-18T05:04:45.445Z,99.90
2018-05-18T05:07:12.996Z,99.90
2018-05-18T05:09:40.569Z,99.90
2018-05-18T05:12:08.107Z,99.90
2018-05-18T05:14:36.428Z,99.90
2018-05-18T05:17:03.962Z,99.90
2018-05-18T05:19:31.535Z,99.90
2018-05-18T05:21:59.086Z,99.90
2018-05-18T05:24:26.622Z,99.90
2018-05-18T05:26:54.951Z,99.90
2018-05-18T05:29:22.490Z,99.90
2018-05-18T05:31:50.043Z,99.90
2018-05-18T05:34:17.580Z,99.90
2018-05-18T05:36:48.585Z,99.90
2018-05-18T05:39:16.756Z,99.90
2018-05-18T05:41:44.325Z,99.90
2018-05-18T05:44:11.887Z,99.90
2018-05-18T05:46:39.439Z,99.90
2018-05-18T05:49:06.978Z,99.90
2018-05-18T05:51:34.563Z,99.90
2018-05-18T05:54:02.131Z,99.90
2018-05-18T05:56:29.680Z,99.90
2018-05-18T05:58:57.217Z,99.90
2018-05-18T06:01:24.766Z,99.90
2018-05-18T06:03:52.319Z,99.90
2018-05-18T06:06:20.657Z,99.90
2018-05-18T06:08:49.172Z,99.90
2018-05-18T06:11:17.520Z,99.90
2018-05-18T06:13:45.059Z,99.90
2018-05-18T06:16:12.624Z,99.90
2018-05-18T06:18:40.164Z,99.90
2018-05-18T06:21:07.719Z,99.90
2018-05-18T06:23:35.271Z,99.90
2018-05-18T06:26:02.822Z,99.90
2018-05-18T06:28:30.413Z,99.90
2018-05-18T06:30:57.994Z,99.90
2018-05-18T06:33:25.536Z,99.90
2018-05-18T06:35:53.295Z,99.90
2018-05-18T06:38:20.861Z,99.90
2018-05-18T06:40:48.409Z,99.90
2018-05-18T06:43:15.967Z,99.90
2018-05-18T06:45:43.506Z,99.90
2018-05-18T06:48:11.059Z,99.90
2018-05-18T06:50:39.374Z,99.90
2018-05-18T06:53:06.953Z,99.90
2018-05-18T06:55:34.496Z,99.90
2018-05-18T06:58:02.861Z,99.90
2018-05-18T07:00:30.414Z,99.90
2018-05-18T07:02:57.977Z,99.90
2018-05-18T07:05:25.535Z,99.90
2018-05-18T07:07:53.102Z,99.90
2018-05-18T07:10:20.648Z,99.90
2018-05-18T07:12:48.205Z,99.90
2018-05-18T07:15:15.746Z,99.90
2018-05-18T07:17:44.075Z,99.50
2018-05-18T07:20:11.623Z,99.50
2018-05-18T07:22:39.193Z,99.80
2018-05-18T07:28:09.568Z,99.90
2018-05-18T07:30:37.104Z,99.90
2018-05-18T07:33:04.744Z,99.60
2018-05-18T07:35:32.273Z,97.90
2018-05-18T07:37:59.824Z,98.20
2018-05-18T07:40:28.127Z,98.50
2018-05-18T07:42:55.686Z,98.50
2018-05-18T07:45:23.227Z,98.20
2018-05-18T07:47:50.785Z,96.80
2018-05-18T07:50:18.322Z,96.60
2018-05-18T07:52:45.868Z,96.00
2018-05-18T07:55:13.411Z,96.30
2018-05-18T07:57:41.025Z,96.80
2018-05-18T08:00:08.572Z,97.60
2018-05-18T08:02:36.125Z,98.00
2018-05-18T08:05:03.655Z,99.50
2018-05-18T08:07:32.037Z,99.60
2018-05-18T08:10:00.332Z,99.70
2018-05-18T08:12:27.868Z,99.70
2018-05-18T08:14:56.171Z,99.90
2018-05-18T08:17:23.743Z,99.90
2018-05-18T08:19:51.305Z,99.90
2018-05-18T08:22:18.838Z,99.90
2018-05-18T08:24:46.404Z,99.90
2018-05-18T08:27:22.600Z,99.90
2018-05-18T08:29:50.957Z,99.90
2018-05-18T08:32:18.494Z,99.90
2018-05-18T08:34:46.053Z,99.90
2018-05-18T08:37:14.392Z,99.90
2018-05-18T08:39:41.934Z,99.90
2018-05-18T08:42:09.689Z,99.90
2018-05-18T08:44:37.235Z,99.90
2018-05-18T08:47:05.708Z,99.90
2018-05-18T08:49:34.182Z,99.90
2018-05-18T08:52:02.495Z,99.90
2018-05-18T08:54:30.076Z,99.90
2018-05-18T08:56:57.616Z,99.90
2018-05-18T08:59:25.190Z,99.90
2018-05-18T09:01:52.719Z,99.90
2018-05-18T09:04:20.280Z,99.90
2018-05-18T09:06:47.805Z,99.90
2018-05-18T09:09:16.129Z,99.90
2018-05-18T09:11:43.654Z,99.90
2018-05-18T09:14:12.329Z,99.90
2018-05-18T09:16:40.636Z,99.90
2018-05-18T09:19:08.182Z,99.90
2018-05-18T09:21:35.707Z,99.90
2018-05-18T09:24:03.248Z,99.90
2018-05-18T09:26:30.902Z,99.90
2018-05-18T09:28:58.371Z,99.90
2018-05-18T09:31:25.928Z,99.90
2018-05-18T09:33:53.546Z,99.90
2018-05-18T09:36:21.009Z,99.90
2018-05-18T09:38:48.560Z,99.90
2018-05-18T09:41:16.876Z,99.90
2018-05-18T09:43:44.397Z,99.90
2018-05-18T09:46:12.698Z,99.90
2018-05-18T09:48:40.222Z,99.90
2018-05-18T09:51:08.527Z,99.90
2018-05-18T09:53:36.056Z,99.90
2018-05-18T09:56:04.378Z,99.90
2018-05-18T09:58:31.912Z,99.90
2018-05-18T10:01:00.245Z,99.90
2018-05-18T10:03:27.777Z,99.90
2018-05-18T10:05:55.330Z,99.90
2018-05-18T10:08:23.152Z,99.90
2018-05-18T10:10:50.713Z,99.90
2018-05-18T10:13:18.239Z,99.90
2018-05-18T10:15:45.779Z,99.90
2018-05-18T10:18:13.308Z,99.90
2018-05-18T10:20:41.625Z,99.70
2018-05-18T10:23:09.211Z,99.60
2018-05-18T10:25:36.778Z,99.50
2018-05-18T10:28:04.321Z,99.70
2018-05-18T10:30:31.877Z,99.80
2018-05-18T10:33:00.205Z,99.90
2018-05-18T10:35:28.522Z,99.70
2018-05-18T10:37:56.061Z,99.60
2018-05-18T10:40:23.627Z,99.90
2018-05-18T10:42:51.170Z,99.50
2018-05-18T10:45:19.639Z,99.90
2018-05-18T10:47:47.094Z,99.90
2018-05-18T10:50:15.397Z,99.30
2018-05-18T10:52:42.949Z,99.30
2018-05-18T10:55:10.481Z,99.80
2018-05-18T10:57:38.036Z,99.80
2018-05-18T11:00:05.570Z,99.90
2018-05-18T11:02:33.099Z,99.50
2018-05-18T11:05:00.633Z,99.90
2018-05-18T11:07:28.956Z,99.80
2018-05-18T11:09:56.479Z,99.80
2018-05-18T11:12:24.801Z,98.60
2018-05-18T11:14:52.331Z,98.60
2018-05-18T11:17:19.871Z,97.90
2018-05-18T11:19:48.164Z,98.50
2018-05-18T11:22:15.730Z,98.50
2018-05-18T11:24:43.259Z,98.40
2018-05-18T11:27:10.807Z,97.80
2018-05-18T11:29:38.340Z,97.90
2018-05-18T11:32:05.884Z,98.30
2018-05-18T11:34:33.418Z,97.90
2018-05-18T11:37:01.738Z,98.40
2018-05-18T11:39:29.276Z,98.40
2018-05-18T11:41:56.822Z,98.70
2018-05-18T11:44:25.132Z,97.80
2018-05-18T11:46:52.701Z,97.70
2018-05-18T11:49:20.229Z,97.60
2018-05-18T11:51:47.779Z,98.50
2018-05-18T11:54:16.107Z,98.80
2018-05-18T11:56:43.676Z,98.70
2018-05-18T11:59:11.199Z,98.50
2018-05-18T12:01:38.767Z,98.40
2018-05-18T12:04:06.307Z,99.10
2018-05-18T12:06:33.844Z,99.50
2018-05-18T12:09:02.159Z,99.30
2018-05-18T12:11:29.691Z,99.30
2018-05-18T12:13:58.037Z,99.90
2018-05-18T12:16:25.561Z,99.80
2018-05-18T12:18:53.105Z,99.90
2018-05-18T12:21:20.630Z,99.90
2018-05-18T12:23:48.185Z,99.90
2018-05-18T12:26:16.171Z,99.90
2018-05-18T13:50:40.909Z,99.90
2018-05-18T13:53:08.441Z,99.90
2018-05-18T13:55:35.982Z,99.90
2018-05-18T13:58:03.502Z,99.90
2018-05-18T14:00:31.052Z,99.90
2018-05-18T14:02:58.577Z,99.90
2018-05-18T14:05:26.129Z,99.90
2018-05-18T14:07:53.646Z,99.90
2018-05-18T14:10:21.214Z,99.90
2018-05-18T14:12:49.508Z,99.90
2018-05-18T14:15:17.069Z,99.90
2018-05-18T14:17:45.363Z,99.90
2018-05-18T14:20:12.902Z,99.90
2018-05-18T14:22:41.221Z,99.90
2018-05-18T14:25:09.594Z,99.90
2018-05-18T14:27:37.122Z,99.90
2018-05-18T14:30:05.426Z,99.90
2018-05-18T14:32:32.971Z,99.90
2018-05-18T14:35:00.540Z,99.90
2018-05-18T14:37:28.067Z,99.90
2018-05-18T14:39:56.388Z,99.90
2018-05-18T14:42:23.944Z,99.90
2018-05-18T14:44:51.611Z,99.90
2018-05-18T14:47:19.134Z,99.90
2018-05-18T14:49:47.433Z,99.90
2018-05-18T14:52:14.989Z,99.90
2018-05-18T14:54:42.522Z,99.90
2018-05-18T14:57:10.847Z,99.90
2018-05-18T14:59:38.376Z,99.90
2018-05-18T15:02:05.986Z,99.90
2018-05-18T15:04:33.528Z,99.90
2018-05-18T15:07:01.059Z,99.90
2018-05-18T15:09:29.355Z,99.90
2018-05-18T15:11:56.906Z,99.90
2018-05-18T15:14:24.431Z,99.90
2018-05-18T15:16:51.995Z,99.90
2018-05-18T15:19:20.299Z,99.90
2018-05-18T15:21:47.893Z,99.90
2018-05-18T15:24:15.451Z,99.90
2018-05-18T15:26:43.003Z,99.90
2018-05-18T15:29:10.540Z,99.90
2018-05-18T15:31:38.079Z,99.90
2018-05-18T15:34:06.382Z,99.90
2018-05-18T15:36:33.931Z,99.90
2018-05-18T15:39:02.324Z,99.90
2018-05-18T15:41:29.878Z,99.90
2018-05-18T15:43:57.412Z,99.90
2018-05-18T15:46:25.729Z,99.90
2018-05-18T15:48:53.274Z,99.90
2018-05-18T15:51:20.835Z,99.90
2018-05-18T15:53:48.358Z,99.90
2018-05-18T15:56:15.905Z,99.90
2018-05-18T15:58:43.431Z,99.90
2018-05-18T16:01:10.981Z,99.90
2018-05-18T16:03:38.519Z,99.90
2018-05-18T16:06:06.819Z,99.90
2018-05-18T16:08:34.367Z,99.90
2018-05-18T16:11:01.909Z,99.90
2018-05-18T16:13:30.233Z,99.90
2018-05-18T16:15:57.771Z,99.90
2018-05-18T16:18:25.328Z,99.90
2018-05-18T16:20:52.913Z,99.90
2018-05-18T16:23:21.462Z,99.90
2018-05-18T16:25:49.768Z,99.90
2018-05-18T16:28:17.417Z,99.90
2018-05-18T16:30:44.902Z,99.90
2018-05-18T16:33:12.456Z,99.90
2018-05-18T16:35:40.008Z,99.90
2018-05-18T16:38:07.584Z,99.90
2018-05-18T16:40:35.124Z,99.90
2018-05-18T16:43:02.703Z,99.90
2018-05-18T16:45:30.242Z,99.90
2018-05-18T16:47:57.805Z,99.90
2018-05-18T16:50:25.344Z,99.90
2018-05-18T16:52:53.729Z,99.90
2018-05-18T16:55:21.408Z,99.90
2018-05-18T16:57:48.960Z,99.90
2018-05-18T17:00:16.499Z,99.90
2018-05-18T17:02:44.845Z,99.90
2018-05-18T17:05:12.396Z,99.90
2018-05-18T17:07:39.971Z,99.90
2018-05-18T17:10:07.511Z,99.90
2018-05-18T17:12:35.080Z,99.90
2018-05-18T17:15:02.620Z,99.90
2018-05-18T17:17:30.179Z,99.90
2018-05-18T17:19:57.746Z,99.90
2018-05-18T17:22:25.276Z,99.90
2018-05-18T17:24:52.819Z,99.90
2018-05-18T17:27:21.118Z,99.90
2018-05-18T17:29:48.662Z,99.90
2018-05-18T17:32:16.949Z,99.90
2018-05-18T17:34:44.501Z,99.90
2018-05-18T17:37:12.041Z,99.90
2018-05-18T17:39:40.373Z,99.90
2018-05-18T17:42:07.998Z,99.90
2018-05-18T17:44:35.482Z,99.90
2018-05-18T17:47:03.007Z,99.90
2018-05-18T17:49:31.320Z,99.90
2018-05-18T17:51:58.843Z,99.90
2018-05-18T17:54:27.243Z,99.90
2018-05-18T17:56:54.704Z,99.90
2018-05-18T17:59:22.268Z,99.90
2018-05-18T18:01:49.796Z,99.90
2018-05-18T18:04:18.129Z,99.90
2018-05-18T18:06:47.836Z,99.90
2018-05-18T18:09:15.369Z,99.90
2018-05-18T18:11:42.914Z,99.90
2018-05-18T18:14:11.320Z,99.90
2018-05-18T18:16:38.755Z,99.90
2018-05-18T18:19:07.065Z,99.90
2018-05-18T18:21:34.598Z,99.90
2018-05-18T18:24:02.908Z,99.90
2018-05-18T18:26:30.433Z,99.90
2018-05-18T18:28:58.752Z,99.90
2018-05-18T18:31:26.278Z,99.90
2018-05-18T18:33:53.798Z,99.90
2018-05-18T18:36:21.369Z,99.90
2018-05-18T18:38:48.896Z,99.90
2018-05-18T18:41:16.458Z,99.90
2018-05-18T18:43:43.996Z,99.90
2018-05-18T18:46:11.535Z,99.90
2018-05-18T18:48:39.075Z,99.90
2018-05-18T18:51:07.400Z,99.90
2018-05-18T18:53:34.917Z,99.90
2018-05-18T18:56:03.244Z,99.90
2018-05-18T18:58:30.776Z,99.90
2018-05-18T19:00:58.315Z,99.90
2018-05-18T19:03:26.617Z,99.90
2018-05-18T19:05:54.163Z,99.90
2018-05-18T19:08:22.508Z,99.90
2018-05-18T19:10:50.801Z,99.90
2018-05-18T19:13:19.101Z,99.90
2018-05-18T19:15:46.642Z,99.90
2018-05-18T19:18:14.947Z,99.90
2018-05-18T19:20:42.503Z,99.90
2018-05-18T19:23:10.047Z,99.90
2018-05-18T19:25:38.364Z,99.90
2018-05-18T19:28:05.901Z,99.90
2018-05-18T19:30:33.462Z,99.90
2018-05-18T19:33:01.706Z,99.90
2018-05-18T19:35:30.032Z,99.90
2018-05-18T19:37:57.552Z,99.90
2018-05-18T19:40:25.873Z,99.90
2018-05-18T19:42:53.464Z,99.90
2018-05-18T19:45:21.783Z,99.90
2018-05-18T19:47:49.307Z,99.90
2018-05-18T19:50:16.836Z,99.90
2018-05-18T19:52:44.417Z,99.90
2018-05-18T19:55:12.706Z,99.90
2018-05-18T19:57:40.245Z,99.90
2018-05-18T20:00:07.762Z,99.90
2018-05-18T20:02:35.311Z,99.90
2018-05-18T20:05:03.604Z,99.90
2018-05-18T20:07:31.159Z,99.90
2018-05-18T20:09:58.713Z,99.90
2018-05-18T20:12:27.033Z,99.90
2018-05-18T20:14:54.546Z,99.90
2018-05-18T20:17:22.850Z,99.90
2018-05-18T20:19:50.413Z,99.90
2018-05-18T20:22:17.956Z,99.90
2018-05-18T20:24:45.489Z,99.90
2018-05-18T20:27:13.048Z,99.90
2018-05-18T20:29:41.546Z,99.90
2018-05-18T20:32:09.094Z,99.90
2018-05-18T20:34:36.618Z,99.90
2018-05-18T20:37:04.159Z,99.90
2018-05-18T20:39:31.687Z,99.90
2018-05-18T20:42:00.007Z,99.90
2018-05-18T20:44:27.527Z,99.90
2018-05-18T20:46:55.859Z,99.90
2018-05-18T20:49:23.403Z,99.90
2018-05-18T20:51:51.051Z,99.90
2018-05-18T20:54:18.524Z,99.90
2018-05-18T20:56:46.059Z,99.90
2018-05-18T20:59:13.604Z,99.90
2018-05-18T21:01:41.953Z,99.90
2018-05-18T21:04:09.496Z,99.90
2018-05-18T21:06:37.029Z,99.90
2018-05-18T21:09:05.398Z,99.90
2018-05-18T21:11:32.944Z,99.90
2018-05-18T21:14:01.271Z,99.90
2018-05-18T21:16:28.810Z,99.90
2018-05-18T21:18:56.365Z,99.90
2018-05-18T21:21:23.884Z,99.90
2018-05-18T21:23:51.434Z,99.90
2018-05-18T21:26:19.798Z,99.90
2018-05-18T21:28:47.339Z,99.90
2018-05-18T21:31:14.865Z,99.90
2018-05-18T21:33:43.176Z,99.90
2018-05-18T21:36:10.723Z,99.90
2018-05-18T21:38:38.275Z,99.90
2018-05-18T21:41:05.818Z,99.90
2018-05-18T21:43:34.163Z,99.90
2018-05-18T21:46:01.694Z,99.90
2018-05-18T21:48:29.230Z,99.90
2018-05-18T21:50:56.760Z,99.90
2018-05-18T21:53:24.311Z,99.90
2018-05-18T21:55:51.835Z,99.90
2018-05-18T22:00:24.001Z,99.90
2018-05-18T22:02:51.564Z,99.90
2018-05-18T22:05:19.100Z,99.90
2018-05-18T22:07:47.447Z,99.90
2018-05-18T22:10:14.986Z,99.90
2018-05-18T22:12:42.518Z,99.90
2018-05-18T22:15:10.090Z,99.90
2018-05-18T22:17:37.623Z,99.90
2018-05-18T22:20:05.172Z,99.90
2018-05-18T22:22:33.500Z,99.90
2018-05-18T22:25:01.074Z,99.90
2018-05-18T22:27:28.600Z,99.90
2018-05-18T22:29:56.161Z,99.90
2018-05-18T22:32:23.699Z,99.90
2018-05-18T22:34:52.010Z,99.90
2018-05-18T22:37:19.531Z,99.90
2018-05-18T22:39:47.865Z,99.90
2018-05-18T22:42:15.389Z,99.90
2018-05-18T22:44:42.929Z,99.90
2018-05-18T22:47:11.239Z,99.90
2018-05-18T22:49:38.784Z,99.90
2018-05-18T22:52:06.384Z,99.90
2018-05-18T22:54:33.940Z,99.90
2018-05-18T22:57:01.491Z,99.90
2018-05-18T22:59:29.041Z,99.90
2018-05-18T23:01:56.572Z,99.90
2018-05-18T23:04:24.885Z,99.90
2018-05-18T23:06:52.428Z,99.90
2018-05-18T23:09:20.284Z,99.90
2018-05-18T23:11:47.828Z,99.90
2018-05-18T23:14:16.148Z,99.90
2018-05-18T23:16:43.737Z,99.90
2018-05-18T23:19:12.260Z,99.90
2018-05-18T23:21:39.938Z,99.90
2018-05-18T23:24:07.532Z,99.90
2018-05-18T23:26:35.103Z,99.90
2018-05-18T23:29:02.701Z,99.90
2018-05-18T23:31:31.054Z,99.90
2018-05-18T23:33:58.577Z,99.90
2018-05-18T23:36:26.125Z,99.90
2018-05-18T23:38:53.655Z,99.90
2018-05-18T23:41:21.970Z,99.90
2018-05-18T23:43:49.518Z,99.90
2018-05-18T23:46:17.069Z,99.90
2018-05-18T23:48:44.605Z,99.90
2018-05-18T23:51:12.157Z,99.90
2018-05-18T23:53:39.688Z,99.90
2018-05-18T23:56:08.278Z,99.90
2018-05-18T23:58:35.814Z,99.90
